createdAt,value
2022-09-30T00:01:36.706Z,12.27
2022-09-30T00:04:04.853Z,8.97
2022-09-30T00:06:35.217Z,9.53
2022-09-30T00:09:05.003Z,12.23
2022-09-30T00:11:34.717Z,10.93
2022-09-30T00:14:02.736Z,9.73
2022-09-30T00:16:32.766Z,10.70
2022-09-30T00:19:00.619Z,13.70
2022-09-30T00:21:29.236Z,13.80
2022-09-30T00:23:57.248Z,14.43
2022-09-30T00:26:26.463Z,9.30
2022-09-30T00:28:55.408Z,11.70
2022-09-30T00:31:25.024Z,9.33
2022-09-30T00:36:48.119Z,9.23
2022-09-30T00:39:18.715Z,11.77
2022-09-30T00:41:48.701Z,15.37
2022-09-30T00:44:50.646Z,11.00
2022-09-30T00:47:27.030Z,10.90
2022-09-30T00:49:54.769Z,26.90
2022-09-30T00:52:23.894Z,11.30
2022-09-30T00:54:52.159Z,12.60
2022-09-30T00:57:19.861Z,11.53
2022-09-30T00:59:48.982Z,11.87
2022-09-30T01:02:16.687Z,10.80
2022-09-30T01:04:45.212Z,11.87
2022-09-30T01:07:14.450Z,12.40
2022-09-30T01:09:44.325Z,11.10
2022-09-30T01:12:13.594Z,12.67
2022-09-30T01:14:42.043Z,9.87
2022-09-30T01:17:12.460Z,9.87
2022-09-30T01:20:10.132Z,11.80
2022-09-30T01:22:42.481Z,11.40
2022-09-30T01:25:35.717Z,13.13
2022-09-30T01:28:28.039Z,11.90
2022-09-30T01:31:08.383Z,11.57
2022-09-30T01:33:44.128Z,9.60
2022-09-30T01:36:21.809Z,9.73
2022-09-30T01:38:56.403Z,11.10
2022-09-30T01:41:28.021Z,12.00
2022-09-30T01:44:03.016Z,11.23
2022-09-30T01:46:37.102Z,14.90
2022-09-30T01:49:11.221Z,12.37
2022-09-30T01:51:41.720Z,12.93
2022-09-30T01:54:15.199Z,11.40
2022-09-30T01:56:44.716Z,12.00
2022-09-30T01:59:16.051Z,10.37
2022-09-30T02:01:48.089Z,11.27
2022-09-30T02:04:19.700Z,13.50
2022-09-30T02:06:51.801Z,12.33
2022-09-30T02:09:22.975Z,11.30
2022-09-30T02:11:50.781Z,12.60
2022-09-30T02:14:21.528Z,14.40
2022-09-30T02:16:55.222Z,11.93
2022-09-30T02:19:26.867Z,12.77
2022-09-30T02:21:58.621Z,13.13
2022-09-30T02:24:28.325Z,13.83
2022-09-30T02:26:57.837Z,14.43
2022-09-30T02:29:29.078Z,15.00
2022-09-30T02:32:03.419Z,15.47
2022-09-30T02:34:33.817Z,22.33
2022-09-30T02:37:04.471Z,15.87
2022-09-30T02:39:37.021Z,19.93
2022-09-30T02:42:08.877Z,18.03
2022-09-30T02:44:36.863Z,20.70
2022-09-30T02:47:12.897Z,17.97
2022-09-30T02:49:45.457Z,20.03
2022-09-30T02:52:24.121Z,18.10
2022-09-30T02:55:03.074Z,19.00
2022-09-30T02:57:37.165Z,18.47
2022-09-30T03:00:11.796Z,21.27
2022-09-30T03:02:42.071Z,19.90
2022-09-30T03:05:10.506Z,19.87
2022-09-30T03:07:38.773Z,15.30
2022-09-30T03:10:13.922Z,17.60
2022-09-30T03:12:50.008Z,16.33
2022-09-30T03:15:30.372Z,17.50
2022-09-30T03:18:24.081Z,20.20
2022-09-30T03:21:04.098Z,20.57
2022-09-30T03:23:43.593Z,17.37
2022-09-30T03:26:19.807Z,18.20
2022-09-30T03:28:54.160Z,17.03
2022-09-30T03:31:28.196Z,21.53
2022-09-30T03:34:03.773Z,17.43
2022-09-30T03:36:36.556Z,16.97
2022-09-30T03:39:11.192Z,15.30
2022-09-30T03:41:42.781Z,18.03
2022-09-30T03:44:13.378Z,16.03
2022-09-30T03:46:43.765Z,14.20
2022-09-30T03:49:14.803Z,15.57
2022-09-30T03:51:42.834Z,16.50
2022-09-30T03:54:13.078Z,12.87
2022-09-30T03:56:43.041Z,15.20
2022-09-30T03:59:13.196Z,18.40
2022-09-30T04:01:41.048Z,17.30
2022-09-30T04:04:08.797Z,15.57
2022-09-30T04:06:37.693Z,17.33
2022-09-30T04:09:05.332Z,16.17
2022-09-30T04:11:32.973Z,16.60
2022-09-30T04:14:01.433Z,18.50
2022-09-30T04:16:29.989Z,18.40
2022-09-30T04:18:57.724Z,21.03
2022-09-30T04:21:26.022Z,17.00
2022-09-30T04:23:55.708Z,21.80
2022-09-30T04:26:23.366Z,20.80
2022-09-30T04:28:52.462Z,16.10
2022-09-30T04:31:20.509Z,17.93
2022-09-30T04:33:48.058Z,17.80
2022-09-30T04:36:15.755Z,17.17
2022-09-30T04:38:43.567Z,20.67
2022-09-30T04:41:16.295Z,18.20
2022-09-30T04:43:45.348Z,19.10
2022-09-30T04:46:13.013Z,19.13
2022-09-30T04:48:40.751Z,17.63
2022-09-30T04:51:08.361Z,18.27
2022-09-30T04:53:36.005Z,17.60
2022-09-30T04:56:03.572Z,17.10
2022-09-30T04:58:36.830Z,16.93
2022-09-30T05:01:05.406Z,19.80
2022-09-30T05:03:33.002Z,20.60
2022-09-30T05:06:00.841Z,17.67
2022-09-30T05:08:28.432Z,15.50
2022-09-30T05:10:57.823Z,18.67
2022-09-30T05:13:25.871Z,18.50
2022-09-30T05:15:54.883Z,21.30
2022-09-30T05:18:22.886Z,21.43
2022-09-30T05:20:51.078Z,18.60
2022-09-30T05:23:19.131Z,19.57
2022-09-30T05:25:47.167Z,19.37
2022-09-30T05:28:15.734Z,17.50
2022-09-30T05:30:43.791Z,24.23
2022-09-30T05:33:13.198Z,25.17
2022-09-30T05:35:41.576Z,21.80
2022-09-30T05:38:09.938Z,18.30
2022-09-30T05:40:38.585Z,24.30
2022-09-30T05:43:06.478Z,22.30
2022-09-30T05:45:34.693Z,21.53
2022-09-30T05:48:02.921Z,22.47
2022-09-30T05:50:32.065Z,18.47
2022-09-30T05:52:59.644Z,19.60
2022-09-30T05:55:27.268Z,19.70
2022-09-30T05:57:54.905Z,20.93
2022-09-30T06:00:22.486Z,22.83
2022-09-30T06:02:52.695Z,20.87
2022-09-30T06:05:22.039Z,21.90
2022-09-30T06:07:51.382Z,20.10
2022-09-30T06:10:19.054Z,23.00
2022-09-30T06:12:46.667Z,21.43
2022-09-30T06:15:14.372Z,24.03
2022-09-30T06:17:42.573Z,23.10
2022-09-30T06:20:11.240Z,31.80
2022-09-30T06:22:38.854Z,25.07
2022-09-30T06:25:08.552Z,22.50
2022-09-30T06:27:37.160Z,22.73
2022-09-30T06:30:05.694Z,22.73
2022-09-30T06:32:33.402Z,26.30
2022-09-30T06:35:03.064Z,29.13
2022-09-30T06:37:31.035Z,28.07
2022-09-30T06:39:58.611Z,36.73
2022-09-30T06:42:27.493Z,28.50
2022-09-30T06:44:55.721Z,30.73
2022-09-30T06:47:25.865Z,31.13
2022-09-30T06:49:58.592Z,31.10
2022-09-30T06:52:27.152Z,32.93
2022-09-30T06:54:56.492Z,29.13
2022-09-30T06:57:24.953Z,28.77
2022-09-30T06:59:54.412Z,28.70
2022-09-30T07:02:22.183Z,30.07
2022-09-30T07:04:50.209Z,32.67
2022-09-30T07:07:18.506Z,36.50
2022-09-30T07:09:46.930Z,33.80
2022-09-30T07:12:14.760Z,32.57
2022-09-30T07:14:42.346Z,30.90
2022-09-30T07:17:11.241Z,28.43
2022-09-30T07:19:39.182Z,36.80
2022-09-30T07:22:24.243Z,27.37
2022-09-30T07:24:51.838Z,28.40
2022-09-30T07:27:19.538Z,29.17
2022-09-30T07:32:36.336Z,27.13
2022-09-30T07:35:04.521Z,25.43
2022-09-30T07:37:36.242Z,25.57
2022-09-30T07:40:07.452Z,23.57
2022-09-30T07:42:38.455Z,25.33
2022-09-30T07:45:37.646Z,24.77
2022-09-30T07:48:35.393Z,26.20
2022-09-30T07:51:03.024Z,24.13
2022-09-30T07:53:30.688Z,22.30
2022-09-30T07:55:58.936Z,21.53
2022-09-30T07:58:26.491Z,25.63
2022-09-30T08:00:54.155Z,20.50
2022-09-30T08:03:23.465Z,27.10
2022-09-30T08:05:51.463Z,17.67
2022-09-30T08:08:19.873Z,19.57
2022-09-30T08:10:47.625Z,18.73
2022-09-30T08:13:16.611Z,19.17
2022-09-30T08:15:44.688Z,18.47
2022-09-30T08:18:12.555Z,14.70
2022-09-30T08:20:41.768Z,16.03
2022-09-30T08:23:09.584Z,14.17
2022-09-30T08:25:37.327Z,18.00
2022-09-30T08:28:04.972Z,13.07
2022-09-30T08:30:32.797Z,20.40
2022-09-30T08:33:00.441Z,15.23
2022-09-30T08:35:28.256Z,14.57
2022-09-30T08:37:57.298Z,14.90
2022-09-30T08:40:27.622Z,11.90
2022-09-30T08:43:05.054Z,11.70
2022-09-30T08:45:38.479Z,10.53
2022-09-30T08:50:51.303Z,7.90
2022-09-30T08:53:26.030Z,5.97
2022-09-30T08:55:57.090Z,6.33
2022-09-30T08:58:27.992Z,11.33
2022-09-30T09:00:58.668Z,6.53
2022-09-30T09:03:30.091Z,9.70
2022-09-30T09:06:08.200Z,6.37
2022-09-30T09:08:51.963Z,7.80
2022-09-30T09:11:28.614Z,9.63
2022-09-30T09:14:03.469Z,5.73
2022-09-30T09:16:36.127Z,5.00
2022-09-30T09:19:10.683Z,5.13
2022-09-30T09:21:47.830Z,5.97
2022-09-30T09:24:19.831Z,7.00
2022-09-30T09:26:47.954Z,5.70
2022-09-30T09:29:36.547Z,8.73
2022-09-30T09:32:04.240Z,5.90
2022-09-30T09:34:33.953Z,11.23
2022-09-30T09:37:12.225Z,8.60
2022-09-30T09:39:58.459Z,6.13
2022-09-30T09:42:42.096Z,6.53
2022-09-30T09:45:14.474Z,5.50
2022-09-30T09:47:45.599Z,4.60
2022-09-30T09:50:16.213Z,5.13
2022-09-30T09:52:59.373Z,4.73
2022-09-30T09:55:28.325Z,7.27
2022-09-30T09:58:10.253Z,6.07
2022-09-30T10:00:56.126Z,7.40
2022-09-30T10:03:26.596Z,7.90
2022-09-30T10:06:02.909Z,8.50
2022-09-30T10:08:31.928Z,7.60
2022-09-30T10:11:03.419Z,5.13
2022-09-30T10:13:33.178Z,4.27
2022-09-30T10:16:02.329Z,4.97
2022-09-30T10:18:32.749Z,5.67
2022-09-30T10:21:02.421Z,6.70
2022-09-30T10:23:32.277Z,4.40
2022-09-30T10:26:06.296Z,3.80
2022-09-30T10:28:35.658Z,3.90
2022-09-30T10:31:05.802Z,5.20
2022-09-30T10:33:41.748Z,5.20
2022-09-30T10:36:12.204Z,8.07
2022-09-30T10:38:47.912Z,5.00
2022-09-30T10:41:22.827Z,7.80
2022-09-30T10:43:53.131Z,4.10
2022-09-30T10:46:27.057Z,5.13
2022-09-30T10:48:56.913Z,4.77
2022-09-30T10:51:30.594Z,4.60
2022-09-30T10:53:58.601Z,9.90
2022-09-30T10:56:42.910Z,8.30
2022-09-30T10:59:26.845Z,7.97
2022-09-30T11:01:58.160Z,5.33
2022-09-30T11:04:31.611Z,3.87
2022-09-30T11:07:03.183Z,5.57
2022-09-30T11:09:36.326Z,4.73
2022-09-30T11:12:13.011Z,5.23
2022-09-30T11:14:44.785Z,2.80
2022-09-30T11:17:23.748Z,4.30
2022-09-30T11:19:55.326Z,6.00
2022-09-30T11:22:38.609Z,9.27
2022-09-30T11:25:11.038Z,3.47
2022-09-30T11:27:49.380Z,3.00
2022-09-30T11:30:20.114Z,24.07
2022-09-30T11:32:59.693Z,4.53
2022-09-30T11:35:38.284Z,7.43
2022-09-30T11:38:38.639Z,2.80
2022-09-30T11:41:14.587Z,4.53
2022-09-30T11:43:57.307Z,2.40
2022-09-30T11:55:15.521Z,3.80
2022-09-30T11:57:55.426Z,4.20
2022-09-30T12:00:38.561Z,4.97
2022-09-30T12:07:05.571Z,3.60
2022-09-30T12:09:43.648Z,8.40
2022-09-30T12:12:23.589Z,4.00
2022-09-30T12:20:04.233Z,4.80
2022-09-30T12:22:42.473Z,3.93
2022-09-30T12:25:38.836Z,4.43
2022-09-30T12:32:29.697Z,4.50
2022-09-30T12:34:46.117Z,5.13
2022-09-30T12:37:49.408Z,4.90
2022-09-30T12:40:56.251Z,6.03
2022-09-30T12:48:17.009Z,6.50
2022-09-30T12:51:06.734Z,6.33
2022-09-30T12:53:53.965Z,4.40
2022-09-30T12:57:33.425Z,6.30
2022-09-30T13:00:13.380Z,5.73
2022-09-30T13:02:50.481Z,4.60
2022-09-30T13:05:58.070Z,5.00
2022-09-30T13:08:45.705Z,17.00
2022-09-30T13:11:33.271Z,6.73
2022-09-30T13:14:12.528Z,9.40
2022-09-30T13:17:14.813Z,6.03
2022-09-30T13:19:59.285Z,5.60
2022-09-30T13:22:57.652Z,5.07
2022-09-30T13:25:59.148Z,8.20
2022-09-30T13:28:44.519Z,6.20
2022-09-30T13:31:15.226Z,4.53
2022-09-30T13:37:46.013Z,4.67
2022-09-30T13:40:32.897Z,8.50
2022-09-30T13:43:32.967Z,6.30
2022-09-30T13:46:10.295Z,5.50
2022-09-30T13:48:48.628Z,5.20
2022-09-30T13:54:25.019Z,7.00
2022-09-30T13:57:07.628Z,5.77
2022-09-30T13:59:54.420Z,4.90
2022-09-30T14:03:04.255Z,6.03
2022-09-30T14:05:48.425Z,7.50
2022-09-30T14:08:59.340Z,5.63
2022-09-30T14:11:46.993Z,6.00
2022-09-30T14:14:54.713Z,6.20
2022-09-30T14:17:42.253Z,5.60
2022-09-30T14:20:26.030Z,5.73
2022-09-30T14:22:58.663Z,6.20
2022-09-30T14:25:27.912Z,7.40
2022-09-30T14:28:06.074Z,7.53
2022-09-30T14:30:41.053Z,6.00
2022-09-30T14:33:18.510Z,7.97
2022-09-30T14:35:47.734Z,5.73
2022-09-30T14:38:25.530Z,8.70
2022-09-30T14:40:56.437Z,8.90
2022-09-30T14:43:37.632Z,8.57
2022-09-30T14:46:20.448Z,6.80
2022-09-30T14:49:12.694Z,8.60
2022-09-30T14:51:59.277Z,6.63
2022-09-30T14:54:32.111Z,8.80
2022-09-30T14:57:11.477Z,6.70
2022-09-30T14:59:48.013Z,8.40
2022-09-30T15:07:47.075Z,11.17
2022-09-30T15:14:45.087Z,8.73
2022-09-30T15:17:30.376Z,6.93
2022-09-30T15:19:59.440Z,7.27
2022-09-30T15:22:28.892Z,8.40
2022-09-30T15:24:57.960Z,8.43
2022-09-30T15:27:29.947Z,7.37
2022-09-30T15:30:00.682Z,10.90
2022-09-30T15:32:32.649Z,8.47
2022-09-30T15:35:06.294Z,7.00
2022-09-30T15:37:37.537Z,8.43
2022-09-30T15:40:31.455Z,8.00
2022-09-30T15:43:05.155Z,6.17
2022-09-30T15:45:55.059Z,7.93
2022-09-30T15:48:40.990Z,6.20
2022-09-30T15:51:26.958Z,5.97
2022-09-30T15:53:58.211Z,13.13
2022-09-30T15:56:37.525Z,7.73
2022-09-30T15:59:09.367Z,13.87
2022-09-30T16:01:54.009Z,6.93
2022-09-30T16:04:38.344Z,8.17
2022-09-30T16:07:15.001Z,8.00
2022-09-30T16:09:46.523Z,7.03
2022-09-30T16:12:21.104Z,5.63
2022-09-30T16:14:50.923Z,7.10
2022-09-30T16:17:34.448Z,6.90
2022-09-30T16:20:15.751Z,5.97
2022-09-30T16:23:02.805Z,10.50
2022-09-30T16:26:01.553Z,11.00
2022-09-30T16:28:51.787Z,7.47
2022-09-30T16:31:35.206Z,6.90
2022-09-30T16:34:03.684Z,6.77
2022-09-30T16:42:03.785Z,7.93
2022-09-30T16:48:01.328Z,10.10
2022-09-30T16:50:34.719Z,6.60
2022-09-30T16:53:03.664Z,10.63
2022-09-30T16:55:32.139Z,8.37
2022-09-30T16:58:00.239Z,11.90
2022-09-30T17:00:28.790Z,8.17
2022-09-30T17:02:56.597Z,6.53
2022-09-30T17:05:25.903Z,9.93
2022-09-30T17:07:54.846Z,7.20
2022-09-30T17:10:26.277Z,11.90
2022-09-30T17:12:54.172Z,10.43
2022-09-30T17:15:22.369Z,9.60
2022-09-30T17:17:50.368Z,10.23
2022-09-30T17:20:17.923Z,49.77
2022-09-30T17:22:46.197Z,15.50
2022-09-30T17:25:14.262Z,8.67
2022-09-30T17:27:43.428Z,13.23
2022-09-30T17:30:11.969Z,8.03
2022-09-30T17:32:39.997Z,7.97
2022-09-30T17:35:08.945Z,8.53
2022-09-30T17:37:37.504Z,8.77
2022-09-30T17:40:21.970Z,11.67
2022-09-30T17:43:10.857Z,8.93
2022-09-30T17:45:39.805Z,10.13
2022-09-30T17:48:08.946Z,10.70
2022-09-30T17:50:37.068Z,11.40
2022-09-30T17:53:05.919Z,13.43
2022-09-30T17:55:34.600Z,11.50
2022-09-30T17:58:03.921Z,12.70
2022-09-30T18:00:32.297Z,11.20
2022-09-30T18:03:00.543Z,12.13
2022-09-30T18:05:28.276Z,8.20
2022-09-30T18:07:57.178Z,13.60
2022-09-30T18:10:25.007Z,8.63
2022-09-30T18:12:53.792Z,11.00
2022-09-30T18:15:23.440Z,8.17
2022-09-30T18:17:51.252Z,9.13
2022-09-30T18:20:20.784Z,8.80
2022-09-30T18:22:51.089Z,13.97
2022-09-30T18:25:21.914Z,7.63
2022-09-30T18:27:50.889Z,11.50
2022-09-30T18:30:21.295Z,9.47
2022-09-30T18:32:51.116Z,10.23
2022-09-30T18:35:20.373Z,14.80
2022-09-30T18:37:49.708Z,9.97
2022-09-30T18:40:18.227Z,7.33
2022-09-30T18:42:46.337Z,8.80
2022-09-30T18:45:14.254Z,10.17
2022-09-30T18:47:43.096Z,8.40
2022-09-30T18:50:13.844Z,8.10
2022-09-30T18:52:41.802Z,9.37
2022-09-30T18:55:10.592Z,10.20
2022-09-30T18:57:39.055Z,9.77
2022-09-30T19:00:10.150Z,7.00
2022-09-30T19:02:39.736Z,11.17
2022-09-30T19:05:07.950Z,10.97
2022-09-30T19:07:38.143Z,8.13
2022-09-30T19:10:06.820Z,9.93
2022-09-30T19:12:35.812Z,10.10
2022-09-30T19:15:03.576Z,13.73
2022-09-30T19:17:33.081Z,8.53
2022-09-30T19:20:00.980Z,8.50
2022-09-30T19:22:29.013Z,10.10
2022-09-30T19:24:58.031Z,8.90
2022-09-30T19:27:26.233Z,8.27
2022-09-30T19:29:58.559Z,8.27
2022-09-30T19:32:28.910Z,10.30
2022-09-30T19:35:06.007Z,11.07
2022-09-30T19:37:35.108Z,8.63
2022-09-30T19:40:17.423Z,11.87
2022-09-30T19:42:46.406Z,11.50
2022-09-30T19:45:15.946Z,8.50
2022-09-30T19:47:43.717Z,9.83
2022-09-30T19:50:11.377Z,12.20
2022-09-30T19:52:49.805Z,10.37
2022-09-30T19:55:22.876Z,11.70
2022-09-30T19:57:50.546Z,9.10
2022-09-30T20:00:18.211Z,10.57
2022-09-30T20:02:45.882Z,12.20
2022-09-30T20:05:13.481Z,8.90
2022-09-30T20:07:41.133Z,10.37
2022-09-30T20:10:09.709Z,7.93
2022-09-30T20:12:38.752Z,7.23
2022-09-30T20:15:24.942Z,14.13
2022-09-30T20:17:55.150Z,8.43
2022-09-30T20:20:42.480Z,8.13
2022-09-30T20:23:10.291Z,7.87
2022-09-30T20:25:38.164Z,9.90
2022-09-30T20:28:07.384Z,14.73
2022-09-30T20:30:39.435Z,10.70
2022-09-30T20:33:07.146Z,9.10
2022-09-30T20:35:35.869Z,7.10
2022-09-30T20:38:03.511Z,8.60
2022-09-30T20:40:31.177Z,10.90
2022-09-30T20:43:01.770Z,10.10
2022-09-30T20:45:31.378Z,11.10
2022-09-30T20:47:59.262Z,19.57
2022-09-30T20:50:36.222Z,7.87
2022-09-30T20:53:06.446Z,11.77
2022-09-30T20:55:38.126Z,8.60
2022-09-30T20:58:06.761Z,8.97
2022-09-30T21:00:38.315Z,10.77
2022-09-30T21:03:06.965Z,7.77
2022-09-30T21:05:35.099Z,9.57
2022-09-30T21:08:03.343Z,8.53
2022-09-30T21:10:32.042Z,12.03
2022-09-30T21:13:01.326Z,8.67
2022-09-30T21:15:31.202Z,9.50
2022-09-30T21:18:00.674Z,10.13
2022-09-30T21:20:28.280Z,9.80
2022-09-30T21:22:55.925Z,8.90
2022-09-30T21:25:23.493Z,8.40
2022-09-30T21:27:51.606Z,8.83
2022-09-30T21:30:20.177Z,8.20
2022-09-30T21:32:48.836Z,8.40
2022-09-30T21:35:18.003Z,12.23
2022-09-30T21:37:45.738Z,9.80
2022-09-30T21:40:13.557Z,12.10
2022-09-30T21:42:41.515Z,9.70
2022-09-30T21:45:11.656Z,10.07
2022-09-30T21:47:39.444Z,10.30
2022-09-30T21:50:08.670Z,10.23
2022-09-30T21:52:39.321Z,9.10
2022-09-30T21:55:08.035Z,10.60
2022-09-30T21:57:35.887Z,9.13
2022-09-30T22:00:05.619Z,10.97
2022-09-30T22:02:41.986Z,9.40
2022-09-30T22:05:10.510Z,14.60
2022-09-30T22:07:39.966Z,11.90
2022-09-30T22:10:08.879Z,9.27
2022-09-30T22:12:36.589Z,11.77
2022-09-30T22:15:04.913Z,8.43
2022-09-30T22:17:33.658Z,10.90
2022-09-30T22:20:06.300Z,8.70
2022-09-30T22:22:36.394Z,14.70
2022-09-30T22:25:06.647Z,10.47
2022-09-30T22:27:34.785Z,10.30
2022-09-30T22:30:02.378Z,12.00
2022-09-30T22:32:29.998Z,10.33
2022-09-30T22:35:15.181Z,10.80
2022-09-30T22:38:00.505Z,9.77
2022-09-30T22:40:29.443Z,9.60
2022-09-30T22:42:57.260Z,9.13
2022-09-30T22:45:25.411Z,9.80
2022-09-30T22:47:53.108Z,15.33
2022-09-30T22:50:20.830Z,9.60
2022-09-30T22:52:49.520Z,10.67
2022-09-30T22:55:17.302Z,12.70
2022-09-30T22:57:46.329Z,8.23
2022-09-30T23:00:15.343Z,7.90
2022-09-30T23:02:43.049Z,9.80
2022-09-30T23:05:10.969Z,9.83
2022-09-30T23:07:38.729Z,10.03
2022-09-30T23:10:07.637Z,12.73
2022-09-30T23:12:36.299Z,6.77
2022-09-30T23:15:07.307Z,9.40
2022-09-30T23:17:35.743Z,9.43
2022-09-30T23:20:03.401Z,7.70
2022-09-30T23:22:31.018Z,12.60
2022-09-30T23:24:58.605Z,8.67
2022-09-30T23:27:26.186Z,10.20
2022-09-30T23:29:53.870Z,8.43
2022-09-30T23:32:23.148Z,7.20
2022-09-30T23:34:50.697Z,9.80
2022-09-30T23:37:18.299Z,8.37
2022-09-30T23:39:48.811Z,7.17
2022-09-30T23:42:18.495Z,7.20
2022-09-30T23:44:46.500Z,8.67
2022-09-30T23:47:20.911Z,6.73
2022-09-30T23:49:50.656Z,7.90
2022-09-30T23:52:18.717Z,8.33
2022-09-30T23:54:46.906Z,9.73
2022-09-30T23:57:14.913Z,11.40
2022-09-30T23:59:42.703Z,6.60
